Portada
METAR-TAF:

METAR-TAF

Aeroports :

Doha, Qatar

latitud: 25-15-40N, longitud: 051-33-54E, altitud: 11 m

Observació

L'informe es va fer fa 13 minuts, a les 18:30 UTC
Vent 6 kt del Nord/Nord-Oest
Temperatura 27°C
Humitat 66%
Pressió 1016 hPa
Visibilitat 10 km o més
sense núvols per sota de 1500 mi sense presència de cumulonimbus.

METAR: OTBD 301830Z 34006KT CAVOK 27/20 Q1016 NOSIG

Hora: 21:43 (18:43 UTC)

Pronòstic

L'informe es va fer fa 1 hora i 40 minuts, a les 17:03 UTC
Pronòstic vàlid del 30 a les 18 UTC al 31 a les 24 UTC
Vent 4 kt del Oest/Nord-Oest
Visibilitat: 8000 m
Probabilitat 30% :
Temporalment
l' 31 a les 00 UTC al 31 a les 04 UTC
Visibilitat: 5000 m
calitja
Evolucionant progressivament
l' 31 a les 08 UTC al 31 a les 10 UTC
Vent 8 kt del Est/Nord-Est
Evolucionant progressivament
l' 31 a les 20 UTC al 31 a les 22 UTC
Vent 4 kt del Oest/Nord-Oest

TAF: OTBD 301703Z 3018/3124 30004KT 8000 NSC PROB30 TEMPO 3100/3104 5000 HZ BECMG 3108/3110 06008KT BECMG 3120/3122 30004KT

Observacions i pronòstics meteorològics de més de 4000 aeroports (METAR i TAF).

Les estacions disponibles són els punts grocs i vermells al mapa.

Posi el ratolí al punt desitjat per veure el nom de l'estació.

Feu clic per veure les observacions i els pronòstics meteorològics.

Per canviar el mapa: feu clic els botons verds amb una creu de color negre per apropar; al botó verd amb un guió per allunyar la imatge; o en les fletxes verdes per a mapes adjacents.


METAR-TAF: